^^
Station Historical Data
Daily Summary for May 25, 2017 Units:  English    Metric   Both
« Previous Day
Next Day »
Daily Weekly Monthly Yearly Custom
  High: Low: Average:
Temperature: 59.0 °F 54.0 °F 56.2 °F
Dew Point: 57.0 °F 50.5 °F 54.2 °F
Humidity: 97% 81% 93%
Wind Speed: 5.0mph 0.0mph 1.8mph
Wind Gust: 18.0mph - -
Wind- - SW
Pressure: 29.83 in 29.49 in -
Precipitation: 0.51 in    
Historical Graphs
 
 
Tabular Data for May 25, 2017
Time Temperature Dew Point Pressure Wind Wind Speed Wind Gust Humidity Rainfall Rate (Hourly) Conditions
00:00 56.5 °F 51.1 °F 29.83 in Calm   5.0 mph 82% 0.00 in RA
00:15 56.4 °F 50.6 °F 29.83 in Calm   5.0 mph 81% 0.00 in CLR
00:30 56.3 °F 50.5 °F 29.83 in Calm   4.0 mph 81% 0.00 in CLR
00:45 56.1 °F 50.7 °F 29.82 in Calm   6.0 mph 82% 0.00 in CLR
01:00 55.9 °F 50.5 °F 29.83 in Calm   3.0 mph 82% 0.00 in CLR
02:15 55.3 °F 51.5 °F 29.79 in Calm   3.0 mph 87% 0.00 in CLR
02:30 55.4 °F 51.6 °F 29.79 in Calm   7.0 mph 87% 0.00 in CLR
02:45 55.5 °F 51.7 °F 29.78 in Calm   8.0 mph 87% 0.00 in CLR
03:00 55.9 °F 52.1 °F 29.77 in East 2.0 mph 5.0 mph 87% 0.00 in CLR
03:15 56.0 °F 52.2 °F 29.77 in WNW 2.0 mph 5.0 mph 87% 0.00 in BKN
03:30 56.0 °F 52.2 °F 29.77 in WNW 1.0 mph 6.0 mph 87% 0.00 in BKN
03:45 55.9 °F 52.1 °F 29.77 in Calm   6.0 mph 87% 0.00 in BKN
04:00 55.7 °F 51.9 °F 29.76 in NW 2.0 mph 6.0 mph 87% 0.00 in BKN
04:15 55.7 °F 51.9 °F 29.76 in West 1.0 mph 7.0 mph 87% 0.00 in OVC
04:30 55.6 °F 51.8 °F 29.76 in WSW 1.0 mph 5.0 mph 87% 0.00 in OVC
04:45 55.1 °F 51.9 °F 29.75 in WNW 1.0 mph 9.0 mph 89% 0.00 in OVC
05:00 54.8 °F 51.9 °F 29.75 in NW 2.0 mph 6.0 mph 90% 0.00 in OVC
05:15 54.7 °F 52.1 °F 29.75 in West 1.0 mph 5.0 mph 91% 0.00 in OVC
05:30 54.5 °F 51.9 °F 29.76 in NW 1.0 mph 7.0 mph 91% 0.01 in RA
05:45 54.3 °F 52.0 °F 29.76 in NW 2.0 mph 5.0 mph 92% 0.00 in OVC
06:00 54.1 °F 52.1 °F 29.75 in SSW 1.0 mph 6.0 mph 93% 0.01 in OVC
06:15 54.1 °F 52.1 °F 29.73 in NNW 1.0 mph 8.0 mph 93% 0.00 in -RA
06:30 54.0 °F 52.3 °F 29.73 in NW 1.0 mph 7.0 mph 94% 0.00 in -RA
06:45 54.0 °F 52.3 °F 29.73 in WNW 3.0 mph 9.0 mph 94% 0.01 in -RA
07:00 54.0 °F 52.3 °F 29.72 in WNW 2.0 mph 7.0 mph 94% 0.01 in -RA
07:15 54.1 °F 52.4 °F 29.72 in NNE 1.0 mph 10.0 mph 94% 0.01 in -RA
07:30 54.2 °F 52.8 °F 29.71 in SW 3.0 mph 7.0 mph 95% 0.01 in -RA
07:45 54.3 °F 52.9 °F 29.70 in West 1.0 mph 13.0 mph 95% 0.01 in -RA
08:00 54.4 °F 53.0 °F 29.71 in WNW 2.0 mph 6.0 mph 95% 0.01 in -RA
08:15 54.6 °F 53.2 °F 29.69 in WNW 3.0 mph 10.0 mph 95% 0.02 in -RA
08:30 54.9 °F 53.5 °F 29.67 in West 2.0 mph 7.0 mph 95% 0.01 in -RA
08:45 55.0 °F 53.6 °F 29.68 in WNW 1.0 mph 12.0 mph 95% 0.01 in -RA
09:00 54.8 °F 53.4 °F 29.67 in NNE 3.0 mph 10.0 mph 95% 0.00 in -RA
09:15 54.8 °F 53.4 °F 29.67 in SW 2.0 mph 9.0 mph 95% 0.01 in -RA
09:30 54.9 °F 53.5 °F 29.66 in ENE 3.0 mph 12.0 mph 95% 0.03 in -RA
09:45 55.0 °F 53.6 °F 29.66 in NNE 2.0 mph 10.0 mph 95% 0.03 in -RA
10:00 55.1 °F 53.7 °F 29.65 in NW 3.0 mph 18.0 mph 95% 0.01 in -RA
10:15 55.2 °F 53.8 °F 29.64 in West 3.0 mph 13.0 mph 95% 0.04 in -RA
10:30 55.3 °F 53.9 °F 29.63 in South 3.0 mph 17.0 mph 95% 0.03 in -RA
10:45 55.3 °F 53.8 °F 29.63 in NW 5.0 mph 14.0 mph 95% 0.01 in -RA
11:00 55.3 °F 53.9 °F 29.64 in NNE 3.0 mph 12.0 mph 95% 0.02 in -RA
11:15 55.3 °F 53.9 °F 29.64 in North 3.0 mph 15.0 mph 95% 0.02 in RA
11:30 56.1 °F 55.0 °F 29.62 in WNW 5.0 mph 16.0 mph 96% 0.00 in OVC
11:45 56.1 °F 54.7 °F 29.62 in North 5.0 mph 13.0 mph 95% 0.01 in OVC
12:00 55.7 °F 54.3 °F 29.62 in SSE 5.0 mph 18.0 mph 95% 0.01 in RA
12:15 55.4 °F 54.0 °F 29.61 in SW 3.0 mph 13.0 mph 95% 0.02 in -RA
12:30 55.7 °F 54.6 °F 29.61 in WNW 2.0 mph 13.0 mph 96% 0.03 in -RA
12:45 55.7 °F 54.3 °F 29.60 in ENE 3.0 mph 17.0 mph 95% 0.02 in -RA
13:00 55.9 °F 54.5 °F 29.60 in WNW 3.0 mph 12.0 mph 95% 0.01 in -RA
13:15 56.0 °F 54.6 °F 29.60 in NE 3.0 mph 14.0 mph 95% 0.03 in -RA
13:30 55.7 °F 54.3 °F 29.60 in East 3.0 mph 13.0 mph 95% 0.01 in -RA
13:45 55.8 °F 54.4 °F 29.60 in SSE 2.0 mph 8.0 mph 95% 0.01 in -RA
14:00 56.3 °F 54.9 °F 29.60 in NE 1.0 mph 10.0 mph 95% 0.01 in -RA
14:15 56.9 °F 55.8 °F 29.60 in West 2.0 mph 9.0 mph 96% 0.00 in -RA
14:30 56.2 °F 54.8 °F 29.60 in SW 2.0 mph 14.0 mph 95% 0.01 in -RA
14:45 56.3 °F 54.9 °F 29.59 in WNW 2.0 mph 9.0 mph 95% 0.00 in -RA
15:00 56.7 °F 55.6 °F 29.58 in North 3.0 mph 12.0 mph 96% 0.00 in -RA
15:15 56.9 °F 55.8 °F 29.58 in NW 3.0 mph 9.0 mph 96% 0.00 in -RA
15:30 57.1 °F 56.0 °F 29.58 in SE 2.0 mph 13.0 mph 96% 0.00 in -RA
15:45 57.7 °F 56.2 °F 29.57 in NNW 3.0 mph 13.0 mph 95% 0.00 in -RA
16:00 58.4 °F 57.0 °F 29.57 in West 2.0 mph 8.0 mph 95% 0.00 in -RA
16:15 59.0 °F 57.0 °F 29.58 in WNW 3.0 mph 12.0 mph 93% 0.00 in -RA
16:30 58.8 °F 56.8 °F 29.57 in WNW 2.0 mph 10.0 mph 93% 0.00 in -RA
16:45 58.6 °F 56.6 °F 29.56 in WNW 5.0 mph 10.0 mph 93% 0.00 in -RA
17:00 58.3 °F 56.6 °F 29.55 in WNW 1.0 mph 12.0 mph 94% 0.00 in -RA
17:15 58.7 °F 57.0 °F 29.50 in NW 3.0 mph 12.0 mph 94% 0.00 in -RA
17:30 58.7 °F 57.0 °F 29.54 in Calm   12.0 mph 94% 0.00 in -RA
17:45 58.5 °F 56.5 °F 29.56 in SE 2.0 mph 9.0 mph 93% 0.00 in -RA
18:00 58.3 °F 56.6 °F 29.56 in North 2.0 mph 8.0 mph 94% 0.00 in -RA
18:15 58.0 °F 56.3 °F 29.55 in ENE 2.0 mph 10.0 mph 94% 0.00 in -DZ
18:30 57.8 °F 56.4 °F 29.54 in NW 2.0 mph 10.0 mph 95% 0.00 in -DZ
18:45 57.7 °F 56.3 °F 29.55 in ESE 2.0 mph 12.0 mph 95% 0.00 in -DZ
19:00 57.7 °F 56.3 °F 29.55 in SW 1.0 mph 7.0 mph 95% 0.00 in -DZ
19:15 57.6 °F 56.5 °F 29.55 in NNE 1.0 mph 9.0 mph 96% 0.00 in -DZ
19:30 57.5 °F 56.4 °F 29.56 in SW 1.0 mph 6.0 mph 96% 0.01 in -DZ
19:45 57.4 °F 56.3 °F 29.55 in NNE 2.0 mph 6.0 mph 96% 0.00 in -DZ
20:00 57.4 °F 56.2 °F 29.54 in WSW 1.0 mph 5.0 mph 96% 0.00 in -DZ
20:15 57.4 °F 56.3 °F 29.55 in East 2.0 mph 5.0 mph 96% 0.00 in -DZ
20:30 57.4 °F 56.3 °F 29.53 in West 1.0 mph 8.0 mph 96% 0.00 in -DZ
20:45 57.4 °F 56.3 °F 29.52 in West 1.0 mph 9.0 mph 96% 0.01 in -DZ
21:15 57.3 °F 56.2 °F 29.51 in NNW 1.0 mph 4.0 mph 96% 0.00 in -RA
21:30 57.2 °F 56.1 °F 29.51 in NW 1.0 mph 6.0 mph 96% 0.00 in -RA
21:45 57.0 °F 55.9 °F 29.51 in WSW 1.0 mph 4.0 mph 96% 0.00 in -RA
22:00 56.7 °F 55.6 °F 29.51 in NNE 1.0 mph 5.0 mph 96% 0.00 in -RA
22:15 56.6 °F 55.5 °F 29.52 in West 1.0 mph 3.0 mph 96% 0.00 in CLR
22:30 56.5 °F 55.7 °F 29.50 in Calm   4.0 mph 97% 0.00 in CLR
22:45 56.6 °F 55.7 °F 29.49 in Calm   6.0 mph 97% 0.00 in CLR
23:00 56.6 °F 55.8 °F 29.50 in NW 1.0 mph 8.0 mph 97% 0.00 in CLR
23:15 56.6 °F 55.8 °F 29.50 in South 1.0 mph 8.0 mph 97% 0.00 in BKN
23:30 56.6 °F 55.5 °F 29.49 in Calm   7.0 mph 96% 0.00 in BKN
23:45 56.5 °F 55.4 °F 29.50 in NW 1.0 mph 5.0 mph 96% 0.00 in BKN
TarryTown NY Weather
Compliments of Weather Underground - 1.5 mb